createdAt,value
2018-09-01T00:00:40.983Z,19.12
2018-09-01T00:01:41.136Z,19.09
2018-09-01T00:02:40.963Z,19.09
2018-09-01T00:03:40.950Z,19.01
2018-09-01T00:04:40.943Z,19.01
2018-09-01T00:05:40.925Z,19.08
2018-09-01T00:06:40.947Z,18.94
2018-09-01T00:07:40.921Z,19.00
2018-09-01T00:08:40.899Z,19.13
2018-09-01T00:09:40.877Z,19.04
2018-09-01T00:10:40.865Z,18.97
2018-09-01T00:11:40.870Z,18.94
2018-09-01T00:12:40.870Z,18.96
2018-09-01T00:13:40.865Z,18.91
2018-09-01T00:14:40.842Z,18.98
2018-09-01T00:15:40.829Z,18.86
2018-09-01T00:16:40.792Z,18.96
2018-09-01T00:17:40.807Z,18.86
2018-09-01T00:18:40.791Z,18.83
2018-09-01T00:19:40.761Z,18.97
2018-09-01T00:20:40.749Z,18.85
2018-09-01T00:21:40.772Z,18.78
2018-09-01T00:22:40.756Z,18.83
2018-09-01T00:23:40.772Z,18.85
2018-09-01T00:24:40.728Z,18.86
2018-09-01T00:25:40.704Z,18.75
2018-09-01T00:26:40.740Z,18.86
2018-09-01T00:27:40.676Z,18.79
2018-09-01T00:28:40.681Z,18.74
2018-09-01T00:29:40.668Z,18.75
2018-09-01T00:30:40.742Z,18.76
2018-09-01T00:31:40.624Z,18.71
2018-09-01T00:32:40.633Z,18.74
2018-09-01T00:33:40.602Z,18.71
2018-09-01T00:34:40.588Z,18.74
2018-09-01T00:35:40.598Z,18.75
2018-09-01T00:36:40.566Z,18.79
2018-09-01T00:37:40.562Z,18.67
2018-09-01T00:38:40.547Z,18.66
2018-09-01T00:39:40.574Z,18.71
2018-09-01T00:40:40.539Z,18.71
2018-09-01T00:41:40.516Z,18.76
2018-09-01T00:42:40.508Z,18.74
2018-09-01T00:43:40.497Z,18.64
2018-09-01T00:44:40.516Z,18.63
2018-09-01T00:45:40.771Z,18.70
2018-09-01T00:46:40.449Z,18.70
2018-09-01T00:47:40.436Z,18.70
2018-09-01T00:48:40.437Z,18.70
2018-09-01T00:49:40.428Z,18.68
2018-09-01T00:50:40.430Z,18.64
2018-09-01T00:51:40.423Z,18.61
2018-09-01T00:52:40.410Z,18.70
2018-09-01T00:53:40.385Z,18.61
2018-09-01T00:54:40.369Z,18.60
2018-09-01T00:55:40.354Z,18.70
2018-09-01T00:56:40.345Z,18.66
2018-09-01T00:57:40.360Z,18.66
2018-09-01T00:58:40.364Z,18.67
2018-09-01T00:59:40.307Z,18.67
2018-09-01T01:00:40.288Z,18.67
2018-09-01T01:01:40.311Z,18.63
2018-09-01T01:02:40.270Z,18.63
2018-09-01T01:03:40.266Z,18.64
2018-09-01T01:04:40.253Z,18.54
2018-09-01T01:05:40.239Z,18.56
2018-09-01T01:06:40.251Z,18.61
2018-09-01T01:07:40.230Z,18.61
2018-09-01T01:08:40.203Z,18.60
2018-09-01T01:09:40.214Z,18.52
2018-09-01T01:10:40.185Z,18.66
2018-09-01T01:11:40.187Z,18.52
2018-09-01T01:12:40.158Z,18.52
2018-09-01T01:13:40.141Z,18.52
2018-09-01T01:14:40.143Z,18.57
2018-09-01T01:15:40.124Z,18.51
2018-09-01T01:16:40.141Z,18.56
2018-09-01T01:17:40.101Z,18.54
2018-09-01T01:18:40.098Z,18.58
2018-09-01T01:19:40.079Z,18.56
2018-09-01T01:20:40.080Z,18.54
2018-09-01T01:21:40.053Z,18.52
2018-09-01T01:22:40.074Z,18.48
2018-09-01T01:23:40.034Z,18.51
2018-09-01T01:24:40.036Z,18.52
2018-09-01T01:25:40.012Z,18.42
2018-09-01T01:26:40.005Z,18.54
2018-09-01T01:27:40.037Z,18.54
2018-09-01T01:28:40.011Z,18.49
2018-09-01T01:29:39.975Z,18.43
2018-09-01T01:30:39.953Z,18.36
2018-09-01T01:31:39.952Z,18.38
2018-09-01T01:32:39.952Z,18.41
2018-09-01T01:33:39.933Z,18.45
2018-09-01T01:34:39.923Z,18.51
2018-09-01T01:35:39.982Z,18.51
2018-09-01T01:36:39.887Z,18.48
2018-09-01T01:37:39.905Z,18.42
2018-09-01T01:38:39.900Z,18.41
2018-09-01T01:39:39.884Z,18.41
2018-09-01T01:40:39.853Z,18.45
2018-09-01T01:41:39.824Z,18.38
2018-09-01T01:42:39.841Z,18.41
2018-09-01T01:43:39.809Z,18.39
2018-09-01T01:44:39.790Z,18.45
2018-09-01T01:45:39.788Z,18.39
2018-09-01T01:46:39.769Z,18.41
2018-09-01T01:47:39.766Z,18.42
2018-09-01T01:48:39.791Z,18.30
2018-09-01T01:49:39.859Z,18.38
2018-09-01T01:50:39.724Z,18.38
2018-09-01T01:51:39.711Z,18.24
2018-09-01T01:52:39.732Z,18.30
2018-09-01T01:53:39.696Z,18.28
2018-09-01T01:54:39.684Z,18.27
2018-09-01T01:55:39.675Z,18.34
2018-09-01T01:56:39.681Z,18.30
2018-09-01T01:57:39.649Z,18.27
2018-09-01T01:58:39.658Z,18.33
2018-09-01T01:59:39.623Z,18.30
2018-09-01T02:00:39.616Z,18.26
2018-09-01T02:01:39.608Z,18.24
2018-09-01T02:02:39.617Z,18.33
2018-09-01T02:03:39.586Z,18.24
2018-09-01T02:04:39.755Z,18.31
2018-09-01T02:05:39.555Z,18.26
2018-09-01T02:06:39.549Z,18.26
2018-09-01T02:07:39.543Z,18.26
2018-09-01T02:08:39.560Z,18.26
2018-09-01T02:09:39.545Z,18.31
2018-09-01T02:10:39.553Z,18.27
2018-09-01T02:11:39.490Z,18.21
2018-09-01T02:12:39.481Z,18.23
2018-09-01T02:13:39.484Z,18.20
2018-09-01T02:14:39.769Z,18.27
2018-09-01T02:15:39.453Z,18.27
2018-09-01T02:16:39.500Z,18.26
2018-09-01T02:17:39.419Z,18.26
2018-09-01T02:18:39.433Z,18.24
2018-09-01T02:19:39.400Z,18.21
2018-09-01T02:20:39.423Z,18.17
2018-09-01T02:21:39.378Z,18.15
2018-09-01T02:22:39.373Z,18.17
2018-09-01T02:23:39.354Z,18.28
2018-09-01T02:24:39.340Z,18.34
2018-09-01T02:25:39.349Z,18.21
2018-09-01T02:26:39.360Z,18.24
2018-09-01T02:27:39.319Z,18.17
2018-09-01T02:28:39.304Z,18.17
2018-09-01T02:29:39.286Z,18.21
2018-09-01T02:30:39.289Z,18.27
2018-09-01T02:31:39.259Z,18.27
2018-09-01T02:32:39.302Z,18.27
2018-09-01T02:33:39.244Z,18.28
2018-09-01T02:34:39.265Z,18.13
2018-09-01T02:35:39.219Z,18.24
2018-09-01T02:36:39.231Z,18.20
2018-09-01T02:37:39.220Z,18.21
2018-09-01T02:38:39.195Z,18.18
2018-09-01T02:39:39.170Z,18.08
2018-09-01T02:40:39.180Z,18.17
2018-09-01T02:41:39.166Z,18.09
2018-09-01T02:42:39.140Z,18.11
2018-09-01T02:43:39.153Z,18.11
2018-09-01T02:44:39.112Z,18.08
2018-09-01T02:45:39.120Z,18.15
2018-09-01T02:46:39.103Z,18.11
2018-09-01T02:47:39.092Z,18.18
2018-09-01T02:48:39.089Z,18.08
2018-09-01T02:49:39.088Z,18.23
2018-09-01T02:50:39.047Z,18.09
2018-09-01T02:51:39.044Z,18.18
2018-09-01T02:52:39.028Z,18.15
2018-09-01T02:53:39.046Z,18.09
2018-09-01T02:54:39.028Z,18.09
2018-09-01T02:55:39.012Z,18.17
2018-09-01T02:56:38.981Z,18.13
2018-09-01T02:57:39.006Z,18.05
2018-09-01T02:58:38.976Z,18.05
2018-09-01T02:59:38.972Z,18.08
2018-09-01T03:00:38.932Z,18.02
2018-09-01T03:01:38.922Z,18.09
2018-09-01T03:02:38.929Z,18.12
2018-09-01T03:03:38.901Z,18.02
2018-09-01T03:04:38.914Z,18.13
2018-09-01T03:05:38.912Z,18.05
2018-09-01T03:06:38.893Z,18.06
2018-09-01T03:07:38.875Z,18.05
2018-09-01T03:08:38.849Z,18.01
2018-09-01T03:09:38.833Z,18.08
2018-09-01T03:10:38.840Z,18.03
2018-09-01T03:11:38.811Z,18.08
2018-09-01T03:12:38.823Z,17.97
2018-09-01T03:13:38.785Z,18.05
2018-09-01T03:14:38.782Z,18.06
2018-09-01T03:15:38.808Z,18.06
2018-09-01T03:16:38.757Z,18.09
2018-09-01T03:17:38.744Z,18.05
2018-09-01T03:18:38.750Z,18.05
2018-09-01T03:19:38.737Z,18.06
2018-09-01T03:20:38.748Z,18.09
2018-09-01T03:21:38.699Z,18.01
2018-09-01T03:22:38.696Z,18.02
2018-09-01T03:23:38.679Z,18.09
2018-09-01T03:24:38.672Z,18.05
2018-09-01T03:25:38.656Z,18.05
2018-09-01T03:26:38.687Z,18.15
2018-09-01T03:27:38.634Z,18.13
2018-09-01T03:28:38.672Z,18.08
2018-09-01T03:29:38.627Z,18.03
2018-09-01T03:30:38.652Z,18.05
2018-09-01T03:31:38.593Z,18.05
2018-09-01T03:32:38.580Z,18.01
2018-09-01T03:33:38.570Z,17.97
2018-09-01T03:34:38.561Z,18.06
2018-09-01T03:35:38.544Z,18.03
2018-09-01T03:36:38.579Z,18.05
2018-09-01T03:37:38.553Z,17.99
2018-09-01T03:38:38.515Z,18.03
2018-09-01T03:39:38.516Z,17.96
2018-09-01T03:40:38.495Z,18.03
2018-09-01T03:41:38.483Z,18.03
2018-09-01T03:42:38.500Z,18.02
2018-09-01T03:43:38.460Z,18.08
2018-09-01T03:44:38.453Z,18.03
2018-09-01T03:45:38.478Z,18.12
2018-09-01T03:46:38.425Z,18.02
2018-09-01T03:47:38.463Z,18.02
2018-09-01T03:48:38.413Z,17.93
2018-09-01T03:49:38.433Z,18.02
2018-09-01T03:50:38.418Z,18.05
2018-09-01T03:51:38.371Z,18.03
2018-09-01T03:52:38.380Z,18.05
2018-09-01T03:53:38.355Z,17.94
2018-09-01T03:54:38.341Z,17.97
2018-09-01T03:55:38.328Z,17.96
2018-09-01T03:56:38.326Z,17.88
2018-09-01T03:57:38.336Z,17.96
2018-09-01T03:58:38.310Z,17.96
2018-09-01T03:59:38.312Z,17.93
2018-09-01T04:00:38.300Z,17.96
2018-09-01T04:01:38.258Z,18.02
2018-09-01T04:02:38.255Z,17.88
2018-09-01T04:03:38.245Z,17.91
2018-09-01T04:04:38.271Z,17.91
2018-09-01T04:05:38.251Z,17.93
2018-09-01T04:06:38.207Z,17.96
2018-09-01T04:07:38.228Z,17.91
2018-09-01T04:08:38.183Z,17.90
2018-09-01T04:09:38.186Z,17.91
2018-09-01T04:10:38.200Z,17.81
2018-09-01T04:11:38.171Z,17.79
2018-09-01T04:12:38.159Z,17.84
2018-09-01T04:13:38.225Z,17.91
2018-09-01T04:14:38.149Z,17.90
2018-09-01T04:15:38.109Z,17.90
2018-09-01T04:16:38.115Z,17.94
2018-09-01T04:17:38.107Z,17.93
2018-09-01T04:18:38.117Z,17.97
2018-09-01T04:19:38.079Z,17.88
2018-09-01T04:20:38.122Z,17.97
2018-09-01T04:21:38.043Z,17.94
2018-09-01T04:22:38.044Z,17.90
2018-09-01T04:23:38.030Z,17.87
2018-09-01T04:24:38.016Z,17.84
2018-09-01T04:25:38.006Z,17.86
2018-09-01T04:26:38.029Z,17.83
2018-09-01T04:27:37.980Z,17.86
2018-09-01T04:28:37.971Z,17.84
2018-09-01T04:29:37.965Z,17.84
2018-09-01T04:30:37.977Z,17.87
2018-09-01T04:31:37.938Z,17.86
2018-09-01T04:32:37.956Z,17.90
2018-09-01T04:33:37.936Z,17.79
2018-09-01T04:34:37.901Z,17.87
2018-09-01T04:35:37.916Z,17.83
2018-09-01T04:36:37.924Z,17.87
2018-09-01T04:37:37.872Z,17.88
2018-09-01T04:38:37.893Z,17.78
2018-09-01T04:39:37.867Z,17.83
2018-09-01T04:40:37.844Z,17.76
2018-09-01T04:41:37.886Z,17.87
2018-09-01T04:42:37.825Z,17.69
2018-09-01T04:43:37.842Z,17.76
2018-09-01T04:44:37.806Z,17.75
2018-09-01T04:45:37.793Z,17.72
2018-09-01T04:46:37.822Z,17.73
2018-09-01T04:47:37.769Z,17.66
2018-09-01T04:48:37.847Z,17.75
2018-09-01T04:49:37.743Z,17.78
2018-09-01T04:50:37.827Z,17.75
2018-09-01T04:51:37.769Z,17.72
2018-09-01T04:52:45.786Z,17.84
2018-09-01T04:53:37.703Z,17.81
2018-09-01T04:54:37.820Z,17.79
2018-09-01T04:55:37.707Z,17.75
2018-09-01T04:56:37.673Z,17.73
2018-09-01T04:57:37.658Z,17.72
2018-09-01T04:58:37.672Z,17.76
2018-09-01T04:59:37.641Z,17.73
2018-09-01T05:00:37.636Z,17.66
2018-09-01T05:01:37.620Z,17.75
2018-09-01T05:02:37.643Z,17.66
2018-09-01T05:03:37.621Z,17.62
2018-09-01T05:04:37.584Z,17.62
2018-09-01T05:05:37.602Z,17.68
2018-09-01T05:06:37.576Z,17.66
2018-09-01T05:07:37.759Z,17.68
2018-09-01T05:08:37.542Z,17.71
2018-09-01T05:09:37.536Z,17.75
2018-09-01T05:10:37.516Z,17.69
2018-09-01T05:11:37.506Z,17.63
2018-09-01T05:12:37.503Z,17.63
2018-09-01T05:13:37.513Z,17.69
2018-09-01T05:14:37.476Z,17.66
2018-09-01T05:15:37.461Z,17.66
2018-09-01T05:16:37.452Z,17.66
2018-09-01T05:17:37.440Z,17.69
2018-09-01T05:18:37.453Z,17.69
2018-09-01T05:19:37.422Z,17.63
2018-09-01T05:20:37.408Z,17.65
2018-09-01T05:21:37.398Z,17.75
2018-09-01T05:22:37.387Z,17.90
2018-09-01T05:23:37.407Z,17.79
2018-09-01T05:24:37.363Z,17.78
2018-09-01T05:25:37.357Z,17.75
2018-09-01T05:26:37.360Z,17.75
2018-09-01T05:27:37.330Z,17.84
2018-09-01T05:28:37.340Z,17.73
2018-09-01T05:29:37.315Z,17.87
2018-09-01T05:30:37.301Z,17.91
2018-09-01T05:31:37.292Z,17.86
2018-09-01T05:32:37.285Z,17.88
2018-09-01T05:33:37.271Z,17.88
2018-09-01T05:34:37.280Z,17.90
2018-09-01T05:35:37.246Z,17.93
2018-09-01T05:36:37.314Z,17.99
2018-09-01T05:37:37.242Z,17.99
2018-09-01T05:38:37.239Z,17.94
2018-09-01T05:39:37.200Z,17.91
2018-09-01T05:40:37.187Z,17.93
2018-09-01T05:41:37.173Z,17.93
2018-09-01T05:42:37.160Z,17.87
2018-09-01T05:43:37.168Z,17.91
2018-09-01T05:44:37.162Z,17.88
2018-09-01T05:45:37.130Z,17.91
2018-09-01T05:46:37.119Z,17.94
2018-09-01T05:47:37.106Z,17.93
2018-09-01T05:48:37.105Z,17.90
2018-09-01T05:49:37.241Z,17.94
2018-09-01T05:50:37.100Z,17.97
2018-09-01T05:51:37.069Z,17.93
2018-09-01T05:52:37.052Z,17.86
2018-09-01T05:53:37.041Z,17.90
2018-09-01T05:54:37.036Z,17.93
2018-09-01T05:55:37.050Z,17.91
2018-09-01T05:56:37.011Z,17.96
2018-09-01T05:57:37.001Z,17.93
2018-09-01T05:58:36.984Z,18.01
2018-09-01T05:59:36.974Z,17.97
2018-09-01T06:00:37.079Z,17.96
2018-09-01T06:01:36.955Z,17.86
2018-09-01T06:02:36.942Z,17.91
2018-09-01T06:03:36.926Z,17.96
2018-09-01T06:04:36.926Z,18.02
2018-09-01T06:05:36.926Z,18.03
2018-09-01T06:06:36.891Z,18.06
2018-09-01T06:07:36.891Z,18.06
2018-09-01T06:08:36.874Z,18.09
2018-09-01T06:09:36.863Z,18.06
2018-09-01T06:10:36.874Z,18.06
2018-09-01T06:11:36.841Z,18.06
2018-09-01T06:12:36.837Z,18.13
2018-09-01T06:13:36.812Z,18.08
2018-09-01T06:14:36.808Z,17.99
2018-09-01T06:15:36.816Z,17.93
2018-09-01T06:16:36.783Z,17.96
2018-09-01T06:17:36.904Z,18.03
2018-09-01T06:18:36.761Z,17.97
2018-09-01T06:19:36.751Z,17.99
2018-09-01T06:20:36.764Z,18.03
2018-09-01T06:21:36.723Z,18.06
2018-09-01T06:22:36.718Z,18.11
2018-09-01T06:23:36.705Z,18.20
2018-09-01T06:24:36.696Z,18.13
2018-09-01T06:25:36.710Z,18.21
2018-09-01T06:26:36.705Z,18.18
2018-09-01T06:27:36.663Z,18.12
2018-09-01T06:28:36.651Z,18.20
2018-09-01T06:29:36.637Z,18.20
2018-09-01T06:30:36.652Z,18.20
2018-09-01T06:31:36.624Z,18.15
2018-09-01T06:32:36.602Z,18.18
2018-09-01T06:33:36.595Z,18.15
2018-09-01T06:34:36.613Z,18.27
2018-09-01T06:35:36.599Z,18.28
2018-09-01T06:36:36.580Z,18.23
2018-09-01T06:37:36.599Z,18.24
2018-09-01T06:38:36.541Z,18.20
2018-09-01T06:39:36.532Z,18.13
2018-09-01T06:40:36.544Z,18.30
2018-09-01T06:41:36.505Z,18.30
2018-09-01T06:42:36.725Z,18.39
2018-09-01T06:43:36.482Z,18.21
2018-09-01T06:44:36.480Z,18.30
2018-09-01T06:45:36.466Z,18.42
2018-09-01T06:46:36.483Z,18.42
2018-09-01T06:47:36.441Z,18.49
2018-09-01T06:48:36.433Z,18.51
2018-09-01T06:49:36.423Z,18.52
2018-09-01T06:50:36.413Z,18.60
2018-09-01T06:51:36.416Z,18.75
2018-09-01T06:52:36.411Z,18.79
2018-09-01T06:53:36.381Z,18.75
2018-09-01T06:54:36.403Z,18.86
2018-09-01T06:55:36.354Z,19.00
2018-09-01T06:56:36.344Z,19.09
2018-09-01T06:57:36.331Z,19.05
2018-09-01T06:58:36.322Z,19.15
2018-09-01T06:59:36.330Z,19.17
2018-09-01T07:00:36.302Z,19.26
2018-09-01T07:01:36.301Z,19.35
2018-09-01T07:02:36.271Z,19.44
2018-09-01T07:03:36.261Z,19.42
2018-09-01T07:04:36.289Z,19.44
2018-09-01T07:05:36.254Z,19.41
2018-09-01T07:06:36.226Z,19.45
2018-09-01T07:07:36.221Z,19.52
2018-09-01T07:08:36.222Z,19.56
2018-09-01T07:09:36.200Z,19.42
2018-09-01T07:10:36.202Z,19.44
2018-09-01T07:11:36.182Z,19.49
2018-09-01T07:12:36.157Z,19.52
2018-09-01T07:13:36.186Z,19.47
2018-09-01T07:14:36.138Z,19.52
2018-09-01T07:15:36.125Z,19.54
2018-09-01T07:16:36.118Z,19.54
2018-09-01T07:17:36.133Z,19.54
2018-09-01T07:18:36.097Z,19.54
2018-09-01T07:19:36.096Z,19.57
2018-09-01T07:20:36.071Z,19.52
2018-09-01T07:21:36.061Z,19.53
2018-09-01T07:22:36.083Z,19.57
2018-09-01T07:23:36.037Z,19.60
2018-09-01T07:24:36.216Z,19.62
2018-09-01T07:25:36.021Z,19.62
2018-09-01T07:26:36.016Z,19.53
2018-09-01T07:27:35.998Z,19.52
2018-09-01T07:28:35.994Z,19.52
2018-09-01T07:29:35.984Z,19.63
2018-09-01T07:30:36.326Z,19.53
2018-09-01T07:31:36.364Z,19.59
2018-09-01T07:32:35.941Z,19.63
2018-09-01T07:33:35.934Z,19.59
2018-09-01T07:34:35.934Z,19.62
2018-09-01T07:35:35.913Z,19.62
2018-09-01T07:36:35.903Z,19.64
2018-09-01T07:37:35.886Z,19.64
2018-09-01T07:38:35.871Z,19.62
2018-09-01T07:39:35.884Z,19.63
2018-09-01T07:40:35.854Z,19.72
2018-09-01T07:41:35.887Z,19.64
2018-09-01T07:42:35.824Z,19.71
2018-09-01T07:43:35.815Z,19.70
2018-09-01T07:44:35.826Z,19.77
2018-09-01T07:45:35.795Z,19.72
2018-09-01T07:46:35.780Z,19.75
2018-09-01T07:47:35.770Z,19.71
2018-09-01T07:48:35.787Z,19.74
2018-09-01T07:49:35.754Z,19.79
2018-09-01T07:50:35.743Z,19.74
2018-09-01T07:51:35.737Z,19.79
2018-09-01T07:52:35.718Z,19.75
2018-09-01T07:53:35.881Z,19.72
2018-09-01T07:54:35.743Z,19.78
2018-09-01T07:55:35.682Z,19.79
2018-09-01T07:56:35.673Z,19.75
2018-09-01T07:57:35.675Z,19.71
2018-09-01T07:58:35.653Z,19.75
2018-09-01T07:59:35.687Z,19.86
2018-09-01T08:00:35.627Z,19.81
2018-09-01T08:01:35.682Z,19.78
2018-09-01T08:02:35.610Z,19.75
2018-09-01T08:03:35.605Z,19.75
2018-09-01T08:04:35.583Z,19.79
2018-09-01T08:05:35.615Z,19.84
2018-09-01T08:06:35.591Z,19.84
2018-09-01T08:07:35.606Z,19.87
2018-09-01T08:08:35.539Z,19.79
2018-09-01T08:09:35.532Z,19.87
2018-09-01T08:10:35.516Z,19.90
2018-09-01T08:11:35.536Z,19.86
2018-09-01T08:12:35.518Z,19.92
2018-09-01T08:13:35.512Z,19.84
2018-09-01T08:14:35.527Z,19.86
2018-09-01T08:15:35.465Z,19.89
2018-09-01T08:16:35.473Z,19.90
2018-09-01T08:17:35.443Z,19.86
2018-09-01T08:18:35.428Z,19.93
2018-09-01T08:19:35.437Z,19.82
2018-09-01T08:20:35.410Z,19.92
2018-09-01T08:21:35.439Z,19.96
2018-09-01T08:22:35.390Z,19.92
2018-09-01T08:23:35.379Z,19.96
2018-09-01T08:24:35.373Z,19.94
2018-09-01T08:25:35.354Z,20.00
2018-09-01T08:26:35.374Z,20.05
2018-09-01T08:27:35.337Z,20.02
2018-09-01T08:28:35.322Z,19.97
2018-09-01T08:29:35.308Z,19.96
2018-09-01T08:30:35.320Z,20.05
2018-09-01T08:31:35.329Z,20.04
2018-09-01T08:32:35.285Z,20.02
2018-09-01T08:33:35.308Z,20.02
2018-09-01T08:34:35.255Z,19.94
2018-09-01T08:35:35.263Z,20.02
2018-09-01T08:36:35.249Z,19.99
2018-09-01T08:37:35.241Z,20.05
2018-09-01T08:38:35.215Z,19.93
2018-09-01T08:39:35.202Z,20.05
2018-09-01T08:40:35.197Z,20.05
2018-09-01T08:41:35.213Z,20.07
2018-09-01T08:42:35.195Z,20.05
2018-09-01T08:43:35.158Z,20.08
2018-09-01T08:44:35.150Z,20.09
2018-09-01T08:45:35.132Z,20.11
2018-09-01T08:46:35.134Z,20.05
2018-09-01T08:47:35.134Z,20.12
2018-09-01T08:48:35.102Z,20.08
2018-09-01T08:49:35.097Z,20.15
2018-09-01T08:50:35.080Z,20.14
2018-09-01T08:51:35.067Z,19.99
2018-09-01T08:52:35.081Z,20.12
2018-09-01T08:53:35.076Z,20.04
2018-09-01T08:54:35.036Z,20.15
2018-09-01T08:55:35.024Z,20.15
2018-09-01T08:56:35.084Z,20.11
2018-09-01T08:57:35.003Z,20.11
2018-09-01T08:58:35.014Z,20.15
2018-09-01T08:59:34.983Z,20.09
2018-09-01T09:00:34.972Z,20.05
2018-09-01T09:01:34.957Z,20.05
2018-09-01T09:02:34.973Z,20.11
2018-09-01T09:03:34.934Z,20.12
2018-09-01T09:04:34.922Z,20.11
2018-09-01T09:05:34.971Z,20.07
2018-09-01T09:06:34.904Z,20.11
2018-09-01T09:07:34.891Z,20.11
2018-09-01T09:08:34.882Z,20.12
2018-09-01T09:09:34.866Z,20.17
2018-09-01T09:10:34.891Z,20.09
2018-09-01T09:11:34.908Z,20.14
2018-09-01T09:12:34.835Z,20.12
2018-09-01T09:13:34.826Z,20.12
2018-09-01T09:14:34.819Z,20.17
2018-09-01T09:15:34.827Z,20.08
2018-09-01T09:16:34.812Z,20.22
2018-09-01T09:17:34.781Z,20.19
2018-09-01T09:18:34.787Z,20.19
2018-09-01T09:19:34.784Z,20.22
2018-09-01T09:20:34.753Z,20.23
2018-09-01T09:21:34.765Z,20.19
2018-09-01T09:22:34.730Z,20.15
2018-09-01T09:23:34.720Z,20.17
2018-09-01T09:24:34.702Z,20.22
2018-09-01T09:25:34.725Z,20.26
2018-09-01T09:26:34.681Z,20.17
2018-09-01T09:27:34.695Z,20.25
2018-09-01T09:28:34.664Z,20.26
2018-09-01T09:29:34.672Z,20.23
2018-09-01T09:30:34.635Z,20.22
2018-09-01T09:31:34.627Z,20.23
2018-09-01T09:32:34.619Z,20.18
2018-09-01T09:33:34.613Z,20.14
2018-09-01T09:34:34.683Z,20.18
2018-09-01T09:35:34.600Z,20.17
2018-09-01T09:36:34.571Z,20.18
2018-09-01T09:37:34.562Z,20.14
2018-09-01T09:38:34.549Z,20.27
2018-09-01T09:39:34.545Z,20.22
2018-09-01T09:40:34.561Z,20.19
2018-09-01T09:41:34.529Z,20.22
2018-09-01T09:42:34.507Z,20.17
2018-09-01T09:43:34.498Z,20.22
2018-09-01T09:44:34.487Z,20.09
2018-09-01T09:45:34.469Z,20.08
2018-09-01T09:46:34.643Z,20.11
2018-09-01T09:47:34.458Z,20.11
2018-09-01T09:48:34.458Z,20.12
2018-09-01T09:49:34.434Z,20.11
2018-09-01T09:50:34.423Z,20.14
2018-09-01T09:51:34.405Z,20.08
2018-09-01T09:52:34.431Z,20.14
2018-09-01T09:53:34.389Z,20.08
2018-09-01T09:54:34.374Z,20.18
2018-09-01T09:55:34.369Z,20.17
2018-09-01T09:56:34.356Z,20.22
2018-09-01T09:57:34.342Z,20.29
2018-09-01T09:58:34.383Z,20.17
2018-09-01T09:59:34.320Z,20.15
2018-09-01T10:00:34.323Z,20.22
2018-09-01T10:01:34.309Z,20.14
2018-09-01T10:02:34.306Z,20.33
2018-09-01T10:03:34.313Z,20.19
2018-09-01T10:04:34.270Z,20.17
2018-09-01T10:05:34.372Z,20.15
2018-09-01T10:06:34.367Z,20.29
2018-09-01T10:07:34.232Z,20.15
2018-09-01T10:08:34.228Z,20.26
2018-09-01T10:09:34.908Z,20.26
2018-09-01T10:10:34.198Z,20.25
2018-09-01T10:11:34.192Z,20.15
2018-09-01T10:12:34.187Z,20.29
2018-09-01T10:13:34.169Z,20.19
2018-09-01T10:14:34.153Z,20.27
2018-09-01T10:15:34.170Z,20.14
2018-09-01T10:16:34.141Z,20.17
2018-09-01T10:17:34.126Z,20.22
2018-09-01T10:18:34.123Z,20.22
2018-09-01T10:19:34.105Z,20.27
2018-09-01T10:20:34.153Z,20.26
2018-09-01T10:21:34.103Z,20.29
2018-09-01T10:22:34.067Z,20.29
2018-09-01T10:23:34.097Z,20.29
2018-09-01T10:24:34.047Z,20.27
2018-09-01T10:25:34.042Z,20.27
2018-09-01T10:26:34.078Z,20.33
2018-09-01T10:27:34.022Z,20.29
2018-09-01T10:28:34.006Z,20.22
2018-09-01T10:29:33.992Z,20.33
2018-09-01T10:30:33.980Z,20.23
2018-09-01T10:31:33.994Z,20.25
2018-09-01T10:32:33.966Z,20.25
2018-09-01T10:33:34.001Z,20.17
2018-09-01T10:34:33.942Z,20.22
2018-09-01T10:35:33.931Z,20.25
2018-09-01T10:36:33.915Z,20.23
2018-09-01T10:37:33.927Z,20.27
2018-09-01T10:38:33.970Z,20.32
2018-09-01T10:39:33.917Z,20.30
2018-09-01T10:40:33.870Z,20.23
2018-09-01T10:41:33.859Z,20.19
2018-09-01T10:42:33.845Z,20.18
2018-09-01T10:43:33.962Z,20.23
2018-09-01T10:44:33.849Z,20.26
2018-09-01T10:45:33.826Z,20.15
2018-09-01T10:46:33.802Z,20.22
2018-09-01T10:47:33.785Z,20.14
2018-09-01T10:48:33.801Z,20.25
2018-09-01T10:49:33.769Z,20.19
2018-09-01T10:50:33.756Z,20.17
2018-09-01T10:51:33.748Z,20.15
2018-09-01T10:52:33.746Z,20.15
2018-09-01T10:53:33.745Z,20.15
2018-09-01T10:54:33.713Z,20.15
2018-09-01T10:55:33.698Z,20.22
2018-09-01T10:56:33.695Z,20.15
2018-09-01T10:57:33.678Z,20.12
2018-09-01T10:58:33.690Z,20.14
2018-09-01T10:59:33.683Z,20.15
2018-09-01T11:00:33.672Z,20.17
2018-09-01T11:01:33.652Z,20.12
2018-09-01T11:02:33.623Z,20.07
2018-09-01T11:03:33.624Z,20.08
2018-09-01T11:04:33.597Z,20.18
2018-09-01T11:05:33.630Z,20.11
2018-09-01T11:06:33.575Z,20.12
2018-09-01T11:07:33.569Z,20.05
2018-09-01T11:08:33.550Z,20.08
2018-09-01T11:09:33.577Z,20.05
2018-09-01T11:10:33.533Z,20.11
2018-09-01T11:11:33.518Z,20.14
2018-09-01T11:12:33.523Z,20.11
2018-09-01T11:13:33.502Z,20.11
2018-09-01T11:14:33.514Z,20.15
2018-09-01T11:15:33.662Z,20.09
2018-09-01T11:16:33.466Z,20.18
2018-09-01T11:17:33.460Z,20.11
2018-09-01T11:18:33.439Z,20.11
2018-09-01T11:19:33.425Z,20.17
2018-09-01T11:20:33.417Z,20.17
2018-09-01T11:21:33.426Z,20.15
2018-09-01T11:22:33.409Z,20.23
2018-09-01T11:23:33.387Z,20.25
2018-09-01T11:24:33.370Z,20.26
2018-09-01T11:25:33.359Z,20.17
2018-09-01T11:26:33.372Z,20.23
2018-09-01T11:27:33.381Z,20.15
2018-09-01T11:28:33.329Z,20.18
2018-09-01T11:29:33.320Z,20.25
2018-09-01T11:30:33.303Z,20.22
2018-09-01T11:31:33.321Z,20.17
2018-09-01T11:32:33.281Z,20.17
2018-09-01T11:33:33.275Z,20.29
2018-09-01T11:34:33.270Z,20.32
2018-09-01T11:35:33.260Z,20.19
2018-09-01T11:36:33.311Z,20.22
2018-09-01T11:37:33.233Z,20.26
2018-09-01T11:38:33.215Z,20.22
2018-09-01T11:39:33.210Z,20.15
2018-09-01T11:40:33.229Z,20.23
2018-09-01T11:41:33.215Z,20.29
2018-09-01T11:42:33.224Z,20.30
2018-09-01T11:43:33.159Z,20.25
2018-09-01T11:44:33.436Z,20.23
2018-09-01T11:45:33.141Z,20.19
2018-09-01T11:46:33.136Z,20.18
2018-09-01T11:47:33.122Z,20.15
2018-09-01T11:48:33.152Z,20.22
2018-09-01T11:49:33.098Z,20.29
2018-09-01T11:50:33.099Z,20.19
2018-09-01T11:51:33.080Z,20.19
2018-09-01T11:52:33.089Z,20.17
2018-09-01T11:53:33.083Z,20.18
2018-09-01T11:54:33.045Z,20.17
2018-09-01T11:55:33.029Z,20.17
2018-09-01T11:56:33.050Z,20.15
2018-09-01T11:57:33.010Z,20.19
2018-09-01T11:58:33.001Z,20.09
2018-09-01T11:59:32.982Z,20.15
2018-09-01T12:00:32.983Z,20.19
2018-09-01T12:01:32.960Z,20.12
2018-09-01T12:02:32.972Z,20.12
2018-09-01T12:03:32.943Z,20.12
2018-09-01T12:04:32.932Z,20.08
2018-09-01T12:05:32.916Z,20.15
2018-09-01T12:06:32.913Z,20.07
2018-09-01T12:07:32.926Z,20.15
2018-09-01T12:08:32.881Z,20.14
2018-09-01T12:09:32.871Z,20.09
2018-09-01T12:10:32.869Z,20.14
2018-09-01T12:11:32.872Z,20.07
2018-09-01T12:12:32.873Z,20.12
2018-09-01T12:13:32.829Z,20.09
2018-09-01T12:14:32.816Z,20.12
2018-09-01T12:15:32.803Z,20.08
2018-09-01T12:16:32.801Z,20.11
2018-09-01T12:17:32.832Z,20.15
2018-09-01T12:18:32.777Z,20.18
2018-09-01T12:19:32.771Z,20.12
2018-09-01T12:20:32.755Z,20.15
2018-09-01T12:21:32.747Z,20.09
2018-09-01T12:22:32.728Z,20.11
2018-09-01T12:23:32.736Z,20.15
2018-09-01T12:24:32.724Z,20.12
2018-09-01T12:25:32.692Z,20.14
2018-09-01T12:26:32.683Z,20.07
2018-09-01T12:27:32.704Z,20.18
2018-09-01T12:28:32.719Z,20.15
2018-09-01T12:29:32.652Z,20.18
2018-09-01T12:30:32.664Z,20.15
2018-09-01T12:31:32.635Z,20.15
2018-09-01T12:32:32.640Z,20.14
2018-09-01T12:33:32.637Z,20.08
2018-09-01T12:34:32.629Z,20.22
2018-09-01T12:35:32.582Z,20.19
2018-09-01T12:36:32.583Z,20.17
2018-09-01T12:37:32.560Z,20.14
2018-09-01T12:38:32.577Z,20.14
2018-09-01T12:39:32.561Z,20.15
2018-09-01T12:40:32.532Z,20.22
2018-09-01T12:41:32.543Z,20.08
2018-09-01T12:42:32.624Z,20.22
2018-09-01T12:43:32.513Z,20.22
2018-09-01T12:44:32.490Z,20.11
2018-09-01T12:45:32.499Z,20.15
2018-09-01T12:46:32.467Z,20.17
2018-09-01T12:47:32.456Z,20.15
2018-09-01T12:48:32.440Z,20.09
2018-09-01T12:49:32.454Z,20.14
2018-09-01T12:50:32.418Z,20.12
2018-09-01T12:51:32.411Z,20.17
2018-09-01T12:52:32.400Z,20.11